logo
Rechercher aéroport 
image banner adimage banner adimage banner ad
image banner ad

LDOV - Vinkovci / Sopot

Situé à Vinkovci, Croatia

ICAO - LDOV, IATA -

Données fournies par Airmate  

Information générale

Coordonnées: N45°15'3" E18°45'32"
Élévation : 275 feet MSL.
Variation magnétique : 5° East
Voir autres Aéroports à Vukovar-Srijem

Données opérationnelles

Special qualification required
Heure actuelle UTC:
Heure actuelle locale:
Météo à : LDOS - Osijek / Klisa ( 24 km )
METAR: LDOS 032130Z 14007KT CAVOK 08/03 Q1008
TAF: TAF LDOS 031725Z 0318/0418 14005KT 9999 SCT045 TX18/0414Z TN03/0405Z TEMPO 0318/0323 13010KT BECMG 0404/0406 11008KT BECMG 0416/0418 06006KT
Voir NOTAMs / SUP AIP / TFR affectant cet aéroport [VIEW]
Fréquences de communication: [VIEW]

Pistes:

Identifiant RWYQFULongueur (ft)Largeur (ft)SurfaceLDA (ft)
0441°2663103GRAS2625
22221°2663103GRAS2625

Coordonnées de l'aéroport

Adresse: Vinkovci Croatia

Vue satellite de LDOV